Aeroporto :
LOGIN :

Iscrizione | Disclaimer

   EN    FR    IT 

 










Sommario :    VFR   VFR Marginale   IFR   IFR Intensivo   IFR Molto Intensivo
Visibilità : 
Base nubi : 
>= 8 km
>= 3000ft
5 / 8 km
1000 / 3000 ft
1500m / 5 km
500 / 1000 ft
800 / 1500m
200 / 500 ft
< 800m
< 200 ft
Simboli :   Temporali  Nebbia  Neve Forte  Precipitazioni Forti  Vento > 20 kt
SIGMETs :   Varie  Temporali  Ghiacco  Turbolenza  Onda orograficha  Ceneri Vulcaniche






- Altitudine del aeroporto : 7 ft
- Codice IATA : POW


LJPZ - Portoroz

ULTIMO METAR :
  • 231130Z 24010KT 9999 FEW019TCU SCT095 BKN130 22/17 Q1010

METARs OBSOLETI :
  • 231100Z 23009KT 200V260 9999 FEW018 SCT120 BKN140 22/18 Q1010
  • 231030Z 23009KT 9999 FEW018TCU SCT027 BKN110 22/18 Q1010
  • 231000Z 24008KT 9999 FEW018TCU SCT027 BKN110 22/17 Q1010
  • 230930Z 21007KT 160V260 9999 FEW017TCU SCT032 BKN110 22/17 Q1010
  • 230900Z 16004KT 100V210 9999 FEW027TCU SCT085 BKN140 22/18 Q1010
  • 230830Z 18009KT 9999 -SHRA FEW044TCU SCT085 BKN110 19/16 Q1010

TAF TAF LJPZ
Valido dal 23 a 09 ore il 23 a 18 ore UTC


230800Z 2309/2318 15007KT 9999 FEW035 SCT075
TEMPO 2309/2318 SHRA SCT030TCU BKN040
PROB40
TEMPO 2309/2316 VRB15KT 5000 TSRA SCT030CB BKN040



MetMap, La meteo Aeronautica in un colpo d'occhio ! - Copyright ORBIFLY Dicembre 2007 - Disclaimer

ORBIFLY MET'MAP TEAM :

Programmazione e sviluppo : Alexandra Zaïnal
Concezione : Baudouin d'Aumeries
Aiuto per la programmazione : Marc-Olivier Méhu
Supporto tecnico e logistico : Manuel Goepfert
Aiuto per la traduzione : Arnaldo La Scala

Contatto : metmap@orbifly.com




FONTI E CREDITI :

   NOAA